sensor_id;sensor_type;location;lat;lon;timestamp;P1;durP1;ratioP1;P2;durP2;ratioP2
22628;SDS011;11481;53.694;9.910;2024-03-08T00:00:12;27.05;;;12.40;;
22628;SDS011;11481;53.694;9.910;2024-03-08T00:02:42;27.77;;;11.77;;
22628;SDS011;11481;53.694;9.910;2024-03-08T00:05:10;26.17;;;12.18;;
22628;SDS011;11481;53.694;9.910;2024-03-08T00:07:38;26.85;;;11.93;;
22628;SDS011;11481;53.694;9.910;2024-03-08T00:10:08;30.98;;;12.18;;
22628;SDS011;11481;53.694;9.910;2024-03-08T00:12:38;26.95;;;12.05;;
22628;SDS011;11481;53.694;9.910;2024-03-08T00:15:11;24.35;;;11.75;;
22628;SDS011;11481;53.694;9.910;2024-03-08T00:17:42;27.40;;;12.68;;
22628;SDS011;11481;53.694;9.910;2024-03-08T00:20:11;28.20;;;12.52;;
22628;SDS011;11481;53.694;9.910;2024-03-08T00:22:39;24.60;;;11.85;;
22628;SDS011;11481;53.694;9.910;2024-03-08T00:25:07;24.45;;;11.75;;
22628;SDS011;11481;53.694;9.910;2024-03-08T00:27:38;28.50;;;12.93;;
22628;SDS011;11481;53.694;9.910;2024-03-08T00:30:05;25.27;;;11.40;;
22628;SDS011;11481;53.694;9.910;2024-03-08T00:32:33;32.78;;;12.00;;
22628;SDS011;11481;53.694;9.910;2024-03-08T00:35:00;25.48;;;11.80;;
22628;SDS011;11481;53.694;9.910;2024-03-08T00:37:26;28.42;;;11.95;;
22628;SDS011;11481;53.694;9.910;2024-03-08T00:39:53;31.02;;;13.00;;
22628;SDS011;11481;53.694;9.910;2024-03-08T00:42:20;29.85;;;12.18;;
22628;SDS011;11481;53.694;9.910;2024-03-08T00:44:47;26.33;;;12.65;;
22628;SDS011;11481;53.694;9.910;2024-03-08T00:47:18;26.38;;;13.00;;
22628;SDS011;11481;53.694;9.910;2024-03-08T00:49:45;29.48;;;12.70;;
22628;SDS011;11481;53.694;9.910;2024-03-08T00:52:12;29.17;;;12.27;;
22628;SDS011;11481;53.694;9.910;2024-03-08T00:54:39;26.63;;;12.10;;
22628;SDS011;11481;53.694;9.910;2024-03-08T00:57:06;28.88;;;12.23;;
22628;SDS011;11481;53.694;9.910;2024-03-08T00:59:33;28.30;;;12.85;;
22628;SDS011;11481;53.694;9.910;2024-03-08T01:02:01;24.90;;;11.43;;
22628;SDS011;11481;53.694;9.910;2024-03-08T01:04:32;28.35;;;12.65;;
22628;SDS011;11481;53.694;9.910;2024-03-08T01:06:59;27.25;;;12.45;;
22628;SDS011;11481;53.694;9.910;2024-03-08T01:09:26;27.60;;;12.35;;
22628;SDS011;11481;53.694;9.910;2024-03-08T01:11:56;30.27;;;12.23;;
22628;SDS011;11481;53.694;9.910;2024-03-08T01:14:23;26.88;;;12.52;;
22628;SDS011;11481;53.694;9.910;2024-03-08T01:16:54;24.67;;;11.77;;
22628;SDS011;11481;53.694;9.910;2024-03-08T01:19:21;25.70;;;12.20;;
22628;SDS011;11481;53.694;9.910;2024-03-08T01:21:48;24.23;;;12.30;;
22628;SDS011;11481;53.694;9.910;2024-03-08T01:24:15;22.17;;;10.70;;
22628;SDS011;11481;53.694;9.910;2024-03-08T01:26:42;24.73;;;11.68;;
22628;SDS011;11481;53.694;9.910;2024-03-08T01:29:09;24.15;;;11.75;;
22628;SDS011;11481;53.694;9.910;2024-03-08T01:31:36;31.33;;;12.32;;
22628;SDS011;11481;53.694;9.910;2024-03-08T01:34:03;25.38;;;11.43;;
22628;SDS011;11481;53.694;9.910;2024-03-08T01:36:30;27.75;;;12.05;;
22628;SDS011;11481;53.694;9.910;2024-03-08T01:38:56;27.85;;;12.45;;
22628;SDS011;11481;53.694;9.910;2024-03-08T01:41:24;28.30;;;11.82;;
22628;SDS011;11481;53.694;9.910;2024-03-08T01:43:50;27.95;;;11.25;;
22628;SDS011;11481;53.694;9.910;2024-03-08T01:46:19;25.52;;;11.82;;
22628;SDS011;11481;53.694;9.910;2024-03-08T01:48:48;26.67;;;12.38;;
22628;SDS011;11481;53.694;9.910;2024-03-08T01:51:18;27.83;;;13.05;;
22628;SDS011;11481;53.694;9.910;2024-03-08T01:53:48;25.58;;;11.55;;
22628;SDS011;11481;53.694;9.910;2024-03-08T01:56:15;27.25;;;11.52;;
22628;SDS011;11481;53.694;9.910;2024-03-08T01:58:44;31.98;;;12.15;;
22628;SDS011;11481;53.694;9.910;2024-03-08T02:01:11;27.50;;;12.15;;
22628;SDS011;11481;53.694;9.910;2024-03-08T02:03:41;24.58;;;11.43;;
22628;SDS011;11481;53.694;9.910;2024-03-08T02:06:13;26.02;;;12.27;;
22628;SDS011;11481;53.694;9.910;2024-03-08T02:08:43;26.77;;;11.63;;
22628;SDS011;11481;53.694;9.910;2024-03-08T02:11:11;24.25;;;11.85;;
22628;SDS011;11481;53.694;9.910;2024-03-08T02:13:39;26.13;;;12.30;;
22628;SDS011;11481;53.694;9.910;2024-03-08T02:16:05;29.13;;;11.65;;
22628;SDS011;11481;53.694;9.910;2024-03-08T02:18:34;23.88;;;11.70;;
22628;SDS011;11481;53.694;9.910;2024-03-08T02:21:03;29.60;;;12.40;;
22628;SDS011;11481;53.694;9.910;2024-03-08T02:23:31;29.77;;;11.68;;
22628;SDS011;11481;53.694;9.910;2024-03-08T02:25:59;27.90;;;12.63;;
22628;SDS011;11481;53.694;9.910;2024-03-08T02:28:26;25.92;;;11.35;;
22628;SDS011;11481;53.694;9.910;2024-03-08T02:30:53;30.10;;;12.48;;
22628;SDS011;11481;53.694;9.910;2024-03-08T02:33:22;24.70;;;11.90;;
22628;SDS011;11481;53.694;9.910;2024-03-08T02:35:50;25.02;;;12.00;;
22628;SDS011;11481;53.694;9.910;2024-03-08T02:38:20;26.27;;;11.77;;
22628;SDS011;11481;53.694;9.910;2024-03-08T02:40:51;27.52;;;12.32;;
22628;SDS011;11481;53.694;9.910;2024-03-08T02:43:20;27.52;;;12.48;;
22628;SDS011;11481;53.694;9.910;2024-03-08T02:45:51;24.08;;;11.57;;
22628;SDS011;11481;53.694;9.910;2024-03-08T02:48:20;28.90;;;12.73;;
22628;SDS011;11481;53.694;9.910;2024-03-08T02:50:48;24.90;;;11.68;;
22628;SDS011;11481;53.694;9.910;2024-03-08T02:53:17;29.25;;;12.32;;
22628;SDS011;11481;53.694;9.910;2024-03-08T02:55:45;26.25;;;12.23;;
22628;SDS011;11481;53.694;9.910;2024-03-08T02:58:13;26.48;;;11.38;;
22628;SDS011;11481;53.694;9.910;2024-03-08T03:00:41;29.63;;;12.30;;
22628;SDS011;11481;53.694;9.910;2024-03-08T03:03:08;27.45;;;12.05;;
22628;SDS011;11481;53.694;9.910;2024-03-08T03:05:35;29.27;;;11.85;;
22628;SDS011;11481;53.694;9.910;2024-03-08T03:08:02;28.35;;;11.98;;
22628;SDS011;11481;53.694;9.910;2024-03-08T03:10:35;29.05;;;11.88;;
22628;SDS011;11481;53.694;9.910;2024-03-08T03:13:02;29.05;;;11.55;;
22628;SDS011;11481;53.694;9.910;2024-03-08T03:15:31;29.60;;;12.18;;
22628;SDS011;11481;53.694;9.910;2024-03-08T03:17:58;28.17;;;11.77;;
22628;SDS011;11481;53.694;9.910;2024-03-08T03:20:28;28.20;;;11.77;;
22628;SDS011;11481;53.694;9.910;2024-03-08T03:23:07;28.70;;;11.55;;
22628;SDS011;11481;53.694;9.910;2024-03-08T03:25:37;31.30;;;12.05;;
22628;SDS011;11481;53.694;9.910;2024-03-08T03:28:07;28.38;;;11.82;;
22628;SDS011;11481;53.694;9.910;2024-03-08T03:30:34;29.05;;;11.98;;
22628;SDS011;11481;53.694;9.910;2024-03-08T03:33:01;26.70;;;12.10;;
22628;SDS011;11481;53.694;9.910;2024-03-08T03:35:33;23.85;;;10.93;;
22628;SDS011;11481;53.694;9.910;2024-03-08T03:38:00;27.42;;;11.43;;
22628;SDS011;11481;53.694;9.910;2024-03-08T03:40:36;30.38;;;12.52;;
22628;SDS011;11481;53.694;9.910;2024-03-08T03:43:03;24.85;;;10.88;;
22628;SDS011;11481;53.694;9.910;2024-03-08T03:45:31;28.48;;;12.27;;
22628;SDS011;11481;53.694;9.910;2024-03-08T03:48:03;28.92;;;11.85;;
22628;SDS011;11481;53.694;9.910;2024-03-08T03:50:33;31.10;;;11.85;;
22628;SDS011;11481;53.694;9.910;2024-03-08T03:53:02;30.65;;;12.23;;
22628;SDS011;11481;53.694;9.910;2024-03-08T03:55:30;24.27;;;11.80;;
22628;SDS011;11481;53.694;9.910;2024-03-08T03:57:56;27.92;;;11.65;;
22628;SDS011;11481;53.694;9.910;2024-03-08T04:00:25;27.40;;;11.70;;
22628;SDS011;11481;53.694;9.910;2024-03-08T04:03:06;28.38;;;11.75;;
22628;SDS011;11481;53.694;9.910;2024-03-08T04:05:33;28.67;;;11.13;;
22628;SDS011;11481;53.694;9.910;2024-03-08T04:08:00;30.17;;;12.40;;
22628;SDS011;11481;53.694;9.910;2024-03-08T04:10:29;26.40;;;12.27;;
22628;SDS011;11481;53.694;9.910;2024-03-08T04:12:55;26.90;;;11.25;;
22628;SDS011;11481;53.694;9.910;2024-03-08T04:15:23;31.75;;;12.15;;
22628;SDS011;11481;53.694;9.910;2024-03-08T04:17:49;29.80;;;11.25;;
22628;SDS011;11481;53.694;9.910;2024-03-08T04:20:16;30.02;;;11.98;;
22628;SDS011;11481;53.694;9.910;2024-03-08T04:22:43;24.88;;;10.88;;
22628;SDS011;11481;53.694;9.910;2024-03-08T04:25:15;25.60;;;11.30;;
22628;SDS011;11481;53.694;9.910;2024-03-08T04:27:42;29.73;;;12.20;;
22628;SDS011;11481;53.694;9.910;2024-03-08T04:30:09;28.63;;;11.50;;
22628;SDS011;11481;53.694;9.910;2024-03-08T04:32:36;30.08;;;13.05;;
22628;SDS011;11481;53.694;9.910;2024-03-08T04:35:07;26.38;;;11.75;;
22628;SDS011;11481;53.694;9.910;2024-03-08T04:37:34;26.98;;;11.68;;
22628;SDS011;11481;53.694;9.910;2024-03-08T04:40:00;24.95;;;11.32;;
22628;SDS011;11481;53.694;9.910;2024-03-08T04:42:27;25.70;;;11.25;;
22628;SDS011;11481;53.694;9.910;2024-03-08T04:44:59;25.63;;;11.30;;
22628;SDS011;11481;53.694;9.910;2024-03-08T04:47:26;29.40;;;13.75;;
22628;SDS011;11481;53.694;9.910;2024-03-08T04:49:54;25.67;;;11.95;;
22628;SDS011;11481;53.694;9.910;2024-03-08T04:52:30;25.52;;;11.63;;
22628;SDS011;11481;53.694;9.910;2024-03-08T04:54:56;29.13;;;11.60;;
22628;SDS011;11481;53.694;9.910;2024-03-08T04:57:23;28.88;;;12.32;;
22628;SDS011;11481;53.694;9.910;2024-03-08T04:59:52;31.13;;;12.07;;
22628;SDS011;11481;53.694;9.910;2024-03-08T05:02:18;29.25;;;12.15;;
22628;SDS011;11481;53.694;9.910;2024-03-08T05:04:45;28.98;;;11.65;;
22628;SDS011;11481;53.694;9.910;2024-03-08T05:07:15;26.85;;;11.50;;
22628;SDS011;11481;53.694;9.910;2024-03-08T05:09:42;26.90;;;12.30;;
22628;SDS011;11481;53.694;9.910;2024-03-08T05:12:09;26.90;;;11.85;;
22628;SDS011;11481;53.694;9.910;2024-03-08T05:14:36;23.52;;;11.52;;
22628;SDS011;11481;53.694;9.910;2024-03-08T05:17:03;32.50;;;12.52;;
22628;SDS011;11481;53.694;9.910;2024-03-08T05:19:29;27.25;;;12.75;;
22628;SDS011;11481;53.694;9.910;2024-03-08T05:22:00;31.25;;;12.55;;
22628;SDS011;11481;53.694;9.910;2024-03-08T05:24:30;35.50;;;12.15;;
22628;SDS011;11481;53.694;9.910;2024-03-08T05:26:57;31.20;;;13.32;;
22628;SDS011;11481;53.694;9.910;2024-03-08T05:29:28;30.80;;;13.63;;
22628;SDS011;11481;53.694;9.910;2024-03-08T05:31:55;33.10;;;12.30;;
22628;SDS011;11481;53.694;9.910;2024-03-08T05:34:24;32.78;;;14.07;;
22628;SDS011;11481;53.694;9.910;2024-03-08T05:36:51;34.17;;;13.30;;
22628;SDS011;11481;53.694;9.910;2024-03-08T05:39:18;33.47;;;13.82;;
22628;SDS011;11481;53.694;9.910;2024-03-08T05:41:46;36.08;;;15.63;;
22628;SDS011;11481;53.694;9.910;2024-03-08T05:44:15;30.98;;;13.38;;
22628;SDS011;11481;53.694;9.910;2024-03-08T05:46:44;36.72;;;13.65;;
22628;SDS011;11481;53.694;9.910;2024-03-08T05:49:13;32.50;;;13.85;;
22628;SDS011;11481;53.694;9.910;2024-03-08T05:51:40;36.88;;;14.27;;
22628;SDS011;11481;53.694;9.910;2024-03-08T05:54:10;33.95;;;14.00;;
22628;SDS011;11481;53.694;9.910;2024-03-08T05:56:42;37.97;;;13.50;;
22628;SDS011;11481;53.694;9.910;2024-03-08T05:59:12;38.05;;;14.68;;
22628;SDS011;11481;53.694;9.910;2024-03-08T06:01:40;38.90;;;15.10;;
22628;SDS011;11481;53.694;9.910;2024-03-08T06:04:08;32.22;;;13.32;;
22628;SDS011;11481;53.694;9.910;2024-03-08T06:06:38;32.10;;;14.68;;
22628;SDS011;11481;53.694;9.910;2024-03-08T06:09:05;33.10;;;14.10;;
22628;SDS011;11481;53.694;9.910;2024-03-08T06:11:39;32.22;;;13.75;;
22628;SDS011;11481;53.694;9.910;2024-03-08T06:14:07;38.05;;;14.70;;
22628;SDS011;11481;53.694;9.910;2024-03-08T06:16:35;31.50;;;13.95;;
22628;SDS011;11481;53.694;9.910;2024-03-08T06:19:02;36.67;;;15.48;;
22628;SDS011;11481;53.694;9.910;2024-03-08T06:21:30;35.92;;;13.95;;
22628;SDS011;11481;53.694;9.910;2024-03-08T06:23:57;34.83;;;14.98;;
22628;SDS011;11481;53.694;9.910;2024-03-08T06:26:43;37.33;;;14.75;;
22628;SDS011;11481;53.694;9.910;2024-03-08T06:29:10;38.55;;;15.00;;
22628;SDS011;11481;53.694;9.910;2024-03-08T06:31:37;32.72;;;14.32;;
22628;SDS011;11481;53.694;9.910;2024-03-08T06:34:06;37.35;;;16.17;;
22628;SDS011;11481;53.694;9.910;2024-03-08T06:36:34;34.42;;;14.00;;
22628;SDS011;11481;53.694;9.910;2024-03-08T06:39:05;34.85;;;14.40;;
22628;SDS011;11481;53.694;9.910;2024-03-08T06:41:39;34.05;;;14.98;;
22628;SDS011;11481;53.694;9.910;2024-03-08T06:44:06;33.97;;;14.85;;
22628;SDS011;11481;53.694;9.910;2024-03-08T06:46:46;35.28;;;14.60;;
22628;SDS011;11481;53.694;9.910;2024-03-08T06:49:15;34.38;;;14.82;;
22628;SDS011;11481;53.694;9.910;2024-03-08T06:51:44;36.75;;;14.75;;
22628;SDS011;11481;53.694;9.910;2024-03-08T06:54:19;33.72;;;15.02;;
22628;SDS011;11481;53.694;9.910;2024-03-08T06:56:48;33.03;;;14.95;;
22628;SDS011;11481;53.694;9.910;2024-03-08T06:59:14;39.10;;;16.38;;
22628;SDS011;11481;53.694;9.910;2024-03-08T07:01:44;35.28;;;15.15;;
22628;SDS011;11481;53.694;9.910;2024-03-08T07:04:12;34.47;;;15.48;;
22628;SDS011;11481;53.694;9.910;2024-03-08T07:06:39;40.05;;;15.75;;
22628;SDS011;11481;53.694;9.910;2024-03-08T07:09:07;37.53;;;15.52;;
22628;SDS011;11481;53.694;9.910;2024-03-08T07:11:35;34.25;;;15.48;;
22628;SDS011;11481;53.694;9.910;2024-03-08T07:14:04;38.97;;;15.32;;
22628;SDS011;11481;53.694;9.910;2024-03-08T07:16:32;39.22;;;16.55;;
22628;SDS011;11481;53.694;9.910;2024-03-08T07:19:05;33.85;;;15.57;;
22628;SDS011;11481;53.694;9.910;2024-03-08T07:21:38;38.67;;;15.63;;
22628;SDS011;11481;53.694;9.910;2024-03-08T07:24:05;38.38;;;15.65;;
22628;SDS011;11481;53.694;9.910;2024-03-08T07:26:44;40.78;;;16.10;;
22628;SDS011;11481;53.694;9.910;2024-03-08T07:29:19;35.20;;;15.88;;
22628;SDS011;11481;53.694;9.910;2024-03-08T07:31:56;37.88;;;15.75;;
22628;SDS011;11481;53.694;9.910;2024-03-08T07:34:47;40.33;;;15.60;;
22628;SDS011;11481;53.694;9.910;2024-03-08T07:37:17;39.78;;;15.82;;
22628;SDS011;11481;53.694;9.910;2024-03-08T07:39:52;37.30;;;15.98;;
22628;SDS011;11481;53.694;9.910;2024-03-08T07:42:22;40.28;;;15.85;;
22628;SDS011;11481;53.694;9.910;2024-03-08T07:44:49;46.25;;;15.75;;
22628;SDS011;11481;53.694;9.910;2024-03-08T07:47:16;36.58;;;15.75;;
22628;SDS011;11481;53.694;9.910;2024-03-08T07:49:50;40.58;;;16.50;;
22628;SDS011;11481;53.694;9.910;2024-03-08T07:52:17;37.42;;;15.52;;
22628;SDS011;11481;53.694;9.910;2024-03-08T07:54:44;38.70;;;16.27;;
22628;SDS011;11481;53.694;9.910;2024-03-08T07:57:11;40.75;;;16.60;;
22628;SDS011;11481;53.694;9.910;2024-03-08T07:59:37;36.22;;;15.80;;
22628;SDS011;11481;53.694;9.910;2024-03-08T08:02:04;34.15;;;14.93;;
22628;SDS011;11481;53.694;9.910;2024-03-08T08:04:31;38.53;;;16.08;;
22628;SDS011;11481;53.694;9.910;2024-03-08T08:06:58;41.70;;;16.48;;
22628;SDS011;11481;53.694;9.910;2024-03-08T08:09:26;34.08;;;16.35;;
22628;SDS011;11481;53.694;9.910;2024-03-08T08:12:00;43.45;;;15.95;;
22628;SDS011;11481;53.694;9.910;2024-03-08T08:14:30;41.75;;;16.13;;
22628;SDS011;11481;53.694;9.910;2024-03-08T08:16:57;37.65;;;16.90;;
22628;SDS011;11481;53.694;9.910;2024-03-08T08:19:26;42.47;;;17.23;;
22628;SDS011;11481;53.694;9.910;2024-03-08T08:21:53;40.83;;;16.75;;
22628;SDS011;11481;53.694;9.910;2024-03-08T08:24:20;40.40;;;16.63;;
22628;SDS011;11481;53.694;9.910;2024-03-08T08:26:48;42.60;;;17.98;;
22628;SDS011;11481;53.694;9.910;2024-03-08T08:29:14;39.20;;;16.83;;
22628;SDS011;11481;53.694;9.910;2024-03-08T08:31:42;41.70;;;17.63;;
22628;SDS011;11481;53.694;9.910;2024-03-08T08:34:09;38.33;;;17.58;;
22628;SDS011;11481;53.694;9.910;2024-03-08T08:36:38;37.78;;;16.27;;
22628;SDS011;11481;53.694;9.910;2024-03-08T08:39:06;38.53;;;17.30;;
22628;SDS011;11481;53.694;9.910;2024-03-08T08:41:39;41.80;;;18.42;;
22628;SDS011;11481;53.694;9.910;2024-03-08T08:44:07;40.92;;;17.65;;
22628;SDS011;11481;53.694;9.910;2024-03-08T08:46:42;36.78;;;15.80;;
22628;SDS011;11481;53.694;9.910;2024-03-08T08:49:09;41.17;;;16.83;;
22628;SDS011;11481;53.694;9.910;2024-03-08T08:51:38;34.22;;;16.70;;
22628;SDS011;11481;53.694;9.910;2024-03-08T08:54:07;37.20;;;16.58;;
22628;SDS011;11481;53.694;9.910;2024-03-08T08:56:37;37.58;;;16.35;;
22628;SDS011;11481;53.694;9.910;2024-03-08T08:59:05;37.80;;;16.75;;
22628;SDS011;11481;53.694;9.910;2024-03-08T09:01:33;33.60;;;16.73;;
22628;SDS011;11481;53.694;9.910;2024-03-08T09:04:00;34.78;;;16.42;;
22628;SDS011;11481;53.694;9.910;2024-03-08T09:06:27;34.63;;;15.93;;
22628;SDS011;11481;53.694;9.910;2024-03-08T09:08:54;35.58;;;15.95;;
22628;SDS011;11481;53.694;9.910;2024-03-08T09:11:20;38.67;;;16.33;;
22628;SDS011;11481;53.694;9.910;2024-03-08T09:13:47;40.00;;;16.85;;
22628;SDS011;11481;53.694;9.910;2024-03-08T09:16:15;35.45;;;16.38;;
22628;SDS011;11481;53.694;9.910;2024-03-08T09:18:42;38.95;;;16.35;;
22628;SDS011;11481;53.694;9.910;2024-03-08T09:21:10;39.83;;;16.15;;
22628;SDS011;11481;53.694;9.910;2024-03-08T09:23:36;36.13;;;16.23;;
22628;SDS011;11481;53.694;9.910;2024-03-08T09:26:04;33.55;;;15.90;;
22628;SDS011;11481;53.694;9.910;2024-03-08T09:28:39;33.17;;;15.50;;
22628;SDS011;11481;53.694;9.910;2024-03-08T09:31:05;36.53;;;15.77;;
22628;SDS011;11481;53.694;9.910;2024-03-08T09:33:33;33.13;;;16.25;;
22628;SDS011;11481;53.694;9.910;2024-03-08T09:36:01;33.83;;;16.08;;
22628;SDS011;11481;53.694;9.910;2024-03-08T09:38:31;37.63;;;16.63;;
22628;SDS011;11481;53.694;9.910;2024-03-08T09:41:03;33.63;;;15.77;;
22628;SDS011;11481;53.694;9.910;2024-03-08T09:43:31;37.95;;;16.00;;
22628;SDS011;11481;53.694;9.910;2024-03-08T09:46:00;34.83;;;15.10;;
22628;SDS011;11481;53.694;9.910;2024-03-08T09:48:28;35.95;;;15.82;;
22628;SDS011;11481;53.694;9.910;2024-03-08T09:50:56;30.98;;;14.90;;
22628;SDS011;11481;53.694;9.910;2024-03-08T09:53:23;35.63;;;16.90;;
22628;SDS011;11481;53.694;9.910;2024-03-08T09:55:50;32.88;;;15.75;;
22628;SDS011;11481;53.694;9.910;2024-03-08T09:58:18;33.63;;;15.50;;
22628;SDS011;11481;53.694;9.910;2024-03-08T10:00:54;32.13;;;15.02;;
22628;SDS011;11481;53.694;9.910;2024-03-08T10:03:25;32.15;;;15.00;;
22628;SDS011;11481;53.694;9.910;2024-03-08T10:05:52;34.03;;;15.55;;
22628;SDS011;11481;53.694;9.910;2024-03-08T10:08:28;30.15;;;15.00;;
22628;SDS011;11481;53.694;9.910;2024-03-08T10:11:00;35.38;;;16.02;;
22628;SDS011;11481;53.694;9.910;2024-03-08T10:13:27;35.22;;;16.38;;
22628;SDS011;11481;53.694;9.910;2024-03-08T10:15:57;33.95;;;16.15;;
22628;SDS011;11481;53.694;9.910;2024-03-08T10:18:24;32.95;;;16.17;;
22628;SDS011;11481;53.694;9.910;2024-03-08T10:21:06;35.47;;;16.52;;
22628;SDS011;11481;53.694;9.910;2024-03-08T10:23:39;34.05;;;15.95;;
22628;SDS011;11481;53.694;9.910;2024-03-08T10:26:09;34.75;;;15.02;;
22628;SDS011;11481;53.694;9.910;2024-03-08T10:28:37;30.20;;;14.80;;
22628;SDS011;11481;53.694;9.910;2024-03-08T10:31:04;28.67;;;14.95;;
22628;SDS011;11481;53.694;9.910;2024-03-08T10:33:32;32.95;;;15.60;;
22628;SDS011;11481;53.694;9.910;2024-03-08T10:36:05;34.75;;;15.95;;
22628;SDS011;11481;53.694;9.910;2024-03-08T10:38:38;35.15;;;17.10;;
22628;SDS011;11481;53.694;9.910;2024-03-08T10:41:08;34.13;;;15.80;;
22628;SDS011;11481;53.694;9.910;2024-03-08T10:44:01;31.33;;;15.55;;
22628;SDS011;11481;53.694;9.910;2024-03-08T10:46:54;31.25;;;15.38;;
22628;SDS011;11481;53.694;9.910;2024-03-08T10:49:54;32.47;;;14.85;;
22628;SDS011;11481;53.694;9.910;2024-03-08T10:52:25;32.40;;;15.25;;
22628;SDS011;11481;53.694;9.910;2024-03-08T10:54:58;34.15;;;14.55;;
22628;SDS011;11481;53.694;9.910;2024-03-08T10:57:28;29.13;;;14.60;;
22628;SDS011;11481;53.694;9.910;2024-03-08T11:00:00;29.10;;;14.40;;
22628;SDS011;11481;53.694;9.910;2024-03-08T11:02:29;29.08;;;14.60;;
22628;SDS011;11481;53.694;9.910;2024-03-08T11:04:57;29.45;;;14.07;;
22628;SDS011;11481;53.694;9.910;2024-03-08T11:07:24;27.63;;;14.65;;
22628;SDS011;11481;53.694;9.910;2024-03-08T11:10:05;31.90;;;14.55;;
22628;SDS011;11481;53.694;9.910;2024-03-08T11:12:45;27.67;;;14.43;;
22628;SDS011;11481;53.694;9.910;2024-03-08T11:15:24;28.85;;;13.95;;
22628;SDS011;11481;53.694;9.910;2024-03-08T11:17:51;32.63;;;14.05;;
22628;SDS011;11481;53.694;9.910;2024-03-08T11:20:23;28.23;;;13.57;;
22628;SDS011;11481;53.694;9.910;2024-03-08T11:22:54;28.67;;;14.38;;
22628;SDS011;11481;53.694;9.910;2024-03-08T11:25:37;29.15;;;13.73;;
22628;SDS011;11481;53.694;9.910;2024-03-08T11:33:29;25.75;;;13.52;;
22628;SDS011;11481;53.694;9.910;2024-03-08T11:36:02;25.40;;;12.48;;
22628;SDS011;11481;53.694;9.910;2024-03-08T11:38:33;24.02;;;12.30;;
22628;SDS011;11481;53.694;9.910;2024-03-08T11:41:06;24.58;;;12.50;;
22628;SDS011;11481;53.694;9.910;2024-03-08T11:43:37;29.83;;;13.15;;
22628;SDS011;11481;53.694;9.910;2024-03-08T11:46:10;25.90;;;13.23;;
22628;SDS011;11481;53.694;9.910;2024-03-08T11:48:41;28.13;;;12.60;;
22628;SDS011;11481;53.694;9.910;2024-03-08T11:51:13;25.17;;;11.70;;
22628;SDS011;11481;53.694;9.910;2024-03-08T11:53:41;23.90;;;12.38;;
22628;SDS011;11481;53.694;9.910;2024-03-08T11:56:13;29.15;;;13.75;;
22628;SDS011;11481;53.694;9.910;2024-03-08T11:58:52;27.60;;;13.77;;
22628;SDS011;11481;53.694;9.910;2024-03-08T12:01:23;29.08;;;13.43;;
22628;SDS011;11481;53.694;9.910;2024-03-08T12:03:55;23.70;;;13.23;;
22628;SDS011;11481;53.694;9.910;2024-03-08T12:06:39;31.58;;;13.93;;
22628;SDS011;11481;53.694;9.910;2024-03-08T12:09:08;28.77;;;13.00;;
22628;SDS011;11481;53.694;9.910;2024-03-08T12:11:37;22.15;;;12.25;;
22628;SDS011;11481;53.694;9.910;2024-03-08T12:14:06;23.17;;;11.93;;
22628;SDS011;11481;53.694;9.910;2024-03-08T12:16:33;25.15;;;12.57;;
22628;SDS011;11481;53.694;9.910;2024-03-08T12:19:00;27.77;;;12.32;;
22628;SDS011;11481;53.694;9.910;2024-03-08T12:21:34;20.17;;;11.23;;
22628;SDS011;11481;53.694;9.910;2024-03-08T12:24:16;25.30;;;11.80;;
22628;SDS011;11481;53.694;9.910;2024-03-08T12:26:58;24.85;;;11.43;;
22628;SDS011;11481;53.694;9.910;2024-03-08T12:29:25;22.33;;;10.75;;
22628;SDS011;11481;53.694;9.910;2024-03-08T12:31:59;22.70;;;11.45;;
22628;SDS011;11481;53.694;9.910;2024-03-08T12:34:40;24.50;;;11.88;;
22628;SDS011;11481;53.694;9.910;2024-03-08T12:37:09;23.83;;;11.70;;
22628;SDS011;11481;53.694;9.910;2024-03-08T12:39:36;23.00;;;11.82;;
22628;SDS011;11481;53.694;9.910;2024-03-08T12:42:03;20.08;;;10.93;;
22628;SDS011;11481;53.694;9.910;2024-03-08T12:44:32;26.90;;;12.73;;
22628;SDS011;11481;53.694;9.910;2024-03-08T12:46:59;26.02;;;12.07;;
22628;SDS011;11481;53.694;9.910;2024-03-08T12:49:29;24.02;;;12.15;;
22628;SDS011;11481;53.694;9.910;2024-03-08T12:51:57;27.80;;;13.27;;
22628;SDS011;11481;53.694;9.910;2024-03-08T12:54:31;27.98;;;13.65;;
22628;SDS011;11481;53.694;9.910;2024-03-08T12:57:07;25.00;;;12.05;;
22628;SDS011;11481;53.694;9.910;2024-03-08T12:59:41;27.73;;;13.07;;
22628;SDS011;11481;53.694;9.910;2024-03-08T13:02:13;23.63;;;11.85;;
22628;SDS011;11481;53.694;9.910;2024-03-08T13:04:43;21.63;;;11.93;;
22628;SDS011;11481;53.694;9.910;2024-03-08T13:07:11;24.88;;;12.43;;
22628;SDS011;11481;53.694;9.910;2024-03-08T13:09:44;24.88;;;11.60;;
22628;SDS011;11481;53.694;9.910;2024-03-08T13:12:14;24.15;;;12.13;;
22628;SDS011;11481;53.694;9.910;2024-03-08T13:14:42;23.75;;;12.65;;
22628;SDS011;11481;53.694;9.910;2024-03-08T13:17:10;23.83;;;11.93;;
22628;SDS011;11481;53.694;9.910;2024-03-08T13:19:39;25.30;;;12.27;;
22628;SDS011;11481;53.694;9.910;2024-03-08T13:22:10;30.27;;;13.32;;
22628;SDS011;11481;53.694;9.910;2024-03-08T13:24:43;23.45;;;11.70;;
22628;SDS011;11481;53.694;9.910;2024-03-08T13:27:16;25.67;;;12.07;;
22628;SDS011;11481;53.694;9.910;2024-03-08T13:29:46;22.83;;;11.60;;
22628;SDS011;11481;53.694;9.910;2024-03-08T13:32:15;26.23;;;12.95;;
22628;SDS011;11481;53.694;9.910;2024-03-08T13:34:42;21.33;;;11.40;;
22628;SDS011;11481;53.694;9.910;2024-03-08T13:37:13;23.40;;;12.70;;
22628;SDS011;11481;53.694;9.910;2024-03-08T13:39:42;23.73;;;12.32;;
22628;SDS011;11481;53.694;9.910;2024-03-08T13:42:16;21.90;;;10.90;;
22628;SDS011;11481;53.694;9.910;2024-03-08T13:44:56;20.30;;;11.00;;
22628;SDS011;11481;53.694;9.910;2024-03-08T13:47:24;52.78;;;15.38;;
22628;SDS011;11481;53.694;9.910;2024-03-08T13:49:51;24.80;;;11.82;;
22628;SDS011;11481;53.694;9.910;2024-03-08T13:52:18;24.75;;;11.75;;
22628;SDS011;11481;53.694;9.910;2024-03-08T13:54:46;21.00;;;11.40;;
22628;SDS011;11481;53.694;9.910;2024-03-08T13:57:22;23.50;;;11.65;;
22628;SDS011;11481;53.694;9.910;2024-03-08T13:59:57;22.95;;;11.25;;
22628;SDS011;11481;53.694;9.910;2024-03-08T14:02:28;22.85;;;10.63;;
22628;SDS011;11481;53.694;9.910;2024-03-08T14:05:00;21.05;;;11.10;;
22628;SDS011;11481;53.694;9.910;2024-03-08T14:07:28;22.65;;;11.25;;
22628;SDS011;11481;53.694;9.910;2024-03-08T14:09:55;21.60;;;11.10;;
22628;SDS011;11481;53.694;9.910;2024-03-08T14:12:22;25.30;;;12.32;;
22628;SDS011;11481;53.694;9.910;2024-03-08T14:14:56;20.45;;;11.05;;
22628;SDS011;11481;53.694;9.910;2024-03-08T14:17:33;19.77;;;11.75;;
22628;SDS011;11481;53.694;9.910;2024-03-08T14:20:05;24.20;;;12.13;;
22628;SDS011;11481;53.694;9.910;2024-03-08T14:22:36;24.05;;;11.60;;
22628;SDS011;11481;53.694;9.910;2024-03-08T14:25:06;24.52;;;11.75;;
22628;SDS011;11481;53.694;9.910;2024-03-08T14:27:45;22.50;;;12.68;;
22628;SDS011;11481;53.694;9.910;2024-03-08T14:30:14;22.33;;;11.90;;
22628;SDS011;11481;53.694;9.910;2024-03-08T14:32:59;26.30;;;12.60;;
22628;SDS011;11481;53.694;9.910;2024-03-08T14:35:26;24.48;;;12.05;;
22628;SDS011;11481;53.694;9.910;2024-03-08T14:37:53;27.08;;;12.18;;
22628;SDS011;11481;53.694;9.910;2024-03-08T14:40:20;25.85;;;12.45;;